Balneario El Condor, Argentina
Current Conditions -  °F | °C
As of 6:00 AM on Friday 19 Dec 2014 (Local Time) from SAZN Reporting Station
Clear Clear  
Wind Chill: 68°   Ceiling: Unl
Heat Index: 68°   Visibility: 6mi
Dew Point: 30°   Wind: 10mph
Humidity: 24%   Direction: 270°W
Pressure: 29.59"   Gusts: NA
Location:  40.88°S, 63.14°W
Report Text: SAZN 190900Z 27009KT CAVOK 20/M01 Q1002
Loading
Personal Weather Stations






























Interactive Weather Map New forecast layout! Learn more

10-Day Weather Forecast

Advertisements
Track Severe Weather on mobile